Time;durP1;ratioP1;P1;durP2;ratioP2;P2;SDS_P1;SDS_P2;PMS_P1;PMS_P2;Temp;Humidity;BMP_temperature;BMP_pressure;BME280_temperature;BME280_humidity;BME280_pressure;Samples;Min_cycle;Max_cycle;Signal;HPM_P1;HPM_P2
2024/03/08 00:00:18;;;;;;;25.90;10.40;;;;;;;-0.61;55.39;101356.64;105243;1254;69979;-60
2024/03/08 00:02:47;;;;;;;21.40;11.20;;;;;;;-0.72;55.38;101350.47;105158;1260;71811;-61
2024/03/08 00:05:15;;;;;;;29.00;11.70;;;;;;;-0.81;55.50;101356.30;105228;1262;60597;-61
2024/03/08 00:07:43;;;;;;;23.10;9.00;;;;;;;-0.88;55.54;101360.91;105199;1261;60571;-60
2024/03/08 00:10:12;;;;;;;29.40;10.90;;;;;;;-0.96;55.59;101356.04;105077;1257;74419;-60
2024/03/08 00:12:46;;;;;;;27.10;11.50;;;;;;;-1.01;55.64;101356.80;105227;1260;69932;-60
2024/03/08 00:15:15;;;;;;;28.90;12.90;;;;;;;-1.04;55.63;101357.02;105993;1254;72626;-59
2024/03/08 00:17:45;;;;;;;30.90;14.40;;;;;;;-1.09;55.61;101356.09;105174;1262;60497;-63
2024/03/08 00:20:14;;;;;;;30.60;12.60;;;;;;;-1.16;55.52;101356.53;105834;1260;60399;-62
2024/03/08 00:22:43;;;;;;;30.50;13.70;;;;;;;-1.22;55.60;101352.84;105348;1254;72875;-62
2024/03/08 00:25:14;;;;;;;31.90;11.80;;;;;;;-1.26;55.66;101353.59;105152;1263;67834;-62
2024/03/08 00:27:42;;;;;;;30.10;13.10;;;;;;;-1.33;55.64;101351.80;105118;1261;71480;-63
2024/03/08 00:30:13;;;;;;;30.60;13.00;;;;;;;-1.40;55.74;101348.98;105461;1260;60597;-59
2024/03/08 00:32:41;;;;;;;23.70;12.80;;;;;;;-1.45;55.93;101349.41;106054;1255;59434;-60
2024/03/08 00:35:09;;;;;;;24.70;12.30;;;;;;;-1.51;55.99;101347.23;105245;1260;74346;-60
2024/03/08 00:37:38;;;;;;;29.10;14.70;;;;;;;-1.54;56.13;101343.51;105324;1254;68957;-62
2024/03/08 00:40:08;;;;;;;31.80;14.90;;;;;;;-1.58;56.16;101341.15;105336;1263;70426;-62
2024/03/08 00:42:38;;;;;;;23.30;12.60;;;;;;;-1.61;56.22;101340.69;105365;1257;60558;-62
2024/03/08 00:45:06;;;;;;;29.10;13.30;;;;;;;-1.66;56.20;101339.38;105434;1260;60550;-61
2024/03/08 00:47:34;;;;;;;24.30;10.80;;;;;;;-1.71;56.38;101336.68;105348;1265;73836;-62
2024/03/08 00:50:03;;;;;;;22.70;13.00;;;;;;;-1.72;56.51;101334.29;105226;1270;69683;-62
2024/03/08 00:52:31;;;;;;;22.30;11.70;;;;;;;-1.74;56.54;101333.29;105464;1263;71843;-60
2024/03/08 00:54:59;;;;;;;20.20;8.30;;;;;;;-1.74;56.62;101330.71;105168;1266;60462;-60
2024/03/08 00:57:27;;;;;;;18.80;7.80;;;;;;;-1.69;56.44;101331.50;105126;1261;60546;-58
2024/03/08 00:59:56;;;;;;;15.80;6.00;;;;;;;-1.60;56.37;101326.90;105589;1261;73813;-62
2024/03/08 01:02:24;;;;;;;22.70;7.80;;;;;;;-1.51;56.34;101331.08;105766;1254;70196;-62
2024/03/08 01:04:52;;;;;;;21.90;6.40;;;;;;;-1.44;56.35;101328.23;105651;1262;71246;-62
2024/03/08 01:07:19;;;;;;;19.40;8.00;;;;;;;-1.38;56.41;101323.64;105148;1258;60876;-63
2024/03/08 01:09:47;;;;;;;19.60;7.10;;;;;;;-1.28;56.50;101327.27;105105;1263;60492;-62
2024/03/08 01:12:15;;;;;;;23.30;7.20;;;;;;;-1.19;56.51;101321.80;105192;1255;72803;-62
2024/03/08 01:14:43;;;;;;;23.80;9.30;;;;;;;-1.09;56.41;101320.45;105153;1262;69229;-62
2024/03/08 01:17:11;;;;;;;20.40;8.20;;;;;;;-1.04;56.36;101316.73;106112;1260;71447;-62
2024/03/08 01:19:39;;;;;;;17.40;8.00;;;;;;;-1.03;56.40;101314.81;105363;1254;60454;-59
2024/03/08 01:22:07;;;;;;;21.70;9.30;;;;;;;-1.02;56.37;101311.18;105256;1260;60371;-62
2024/03/08 01:24:35;;;;;;;15.80;6.20;;;;;;;-1.02;56.30;101309.46;105159;1263;72853;-62
2024/03/08 01:27:03;;;;;;;17.70;7.60;;;;;;;-1.06;56.14;101308.84;106946;1262;68707;-61
2024/03/08 01:29:31;;;;;;;19.20;8.50;;;;;;;-1.14;56.03;101310.00;105621;1260;71371;-61
2024/03/08 01:32:01;;;;;;;18.60;7.70;;;;;;;-1.21;55.98;101308.94;105227;1261;60501;-62
2024/03/08 01:34:29;;;;;;;20.00;8.20;;;;;;;-1.29;55.93;101303.89;105622;1260;60488;-62
2024/03/08 01:36:57;;;;;;;23.40;7.40;;;;;;;-1.38;55.98;101304.70;106556;1255;73718;-61
2024/03/08 01:39:25;;;;;;;17.70;8.30;;;;;;;-1.45;55.96;101302.06;105753;1260;69734;-61
2024/03/08 01:41:53;;;;;;;20.00;10.40;;;;;;;-1.52;56.17;101295.47;105736;1260;71412;-62
2024/03/08 01:44:22;;;;;;;23.30;8.40;;;;;;;-1.56;56.24;101292.92;105824;1257;60587;-61
2024/03/08 01:46:52;;;;;;;25.40;8.90;;;;;;;-1.58;56.18;101291.59;105171;1260;60526;-60
2024/03/08 01:49:20;;;;;;;22.60;9.50;;;;;;;-1.59;56.35;101286.11;105880;1257;73834;-60
2024/03/08 01:51:48;;;;;;;19.40;9.50;;;;;;;-1.61;56.36;101279.76;106060;1257;69922;-61
2024/03/08 01:54:16;;;;;;;24.30;9.70;;;;;;;-1.63;56.45;101279.46;105310;1260;73108;-62
2024/03/08 01:56:44;;;;;;;26.90;9.10;;;;;;;-1.65;56.45;101275.70;105989;1254;60453;-62
2024/03/08 01:59:14;;;;;;;25.80;13.10;;;;;;;-1.68;56.42;101275.06;105224;1260;60349;-62
2024/03/08 02:01:42;;;;;;;28.50;13.40;;;;;;;-1.72;56.31;101274.09;105175;1260;72651;-61
2024/03/08 02:04:09;;;;;;;20.90;11.30;;;;;;;-1.79;56.25;101270.41;105291;1254;70653;-60
2024/03/08 02:06:38;;;;;;;26.90;11.90;;;;;;;-1.85;56.28;101272.72;105100;1260;71384;-60
2024/03/08 02:09:06;;;;;;;24.60;11.90;;;;;;;-1.91;56.22;101274.36;105262;1261;60431;-62
2024/03/08 02:11:35;;;;;;;27.60;11.40;;;;;;;-1.97;56.23;101270.15;105462;1260;60562;-61
2024/03/08 02:14:06;;;;;;;24.80;13.40;;;;;;;-2.04;56.25;101266.98;105621;1256;73889;-62
2024/03/08 02:16:34;;;;;;;17.20;8.80;;;;;;;-2.08;56.41;101268.05;105465;1254;70461;-63
2024/03/08 02:19:02;;;;;;;25.50;10.70;;;;;;;-2.12;56.48;101267.77;105172;1257;74529;-61
2024/03/08 02:21:29;;;;;;;26.20;11.70;;;;;;;-2.16;56.53;101267.82;105200;1257;60565;-61
2024/03/08 02:23:57;;;;;;;21.70;9.70;;;;;;;-2.19;56.62;101270.09;105149;1263;60309;-61
2024/03/08 02:26:25;;;;;;;19.40;5.70;;;;;;;-2.14;56.57;101268.48;106311;1254;72573;-61
2024/03/08 02:28:54;;;;;;;19.40;8.70;;;;;;;-2.05;56.50;101266.98;105021;1261;71366;-60
2024/03/08 02:31:21;;;;;;;21.60;5.80;;;;;;;-1.95;56.60;101267.88;105029;1260;72408;-60
2024/03/08 02:33:49;;;;;;;22.20;5.70;;;;;;;-1.86;56.77;101269.13;105125;1260;60862;-60
2024/03/08 02:36:17;;;;;;;19.80;7.40;;;;;;;-1.77;56.71;101263.66;105296;1254;60579;-61
2024/03/08 02:38:45;;;;;;;21.10;9.60;;;;;;;-1.67;56.65;101260.93;105882;1255;72708;-60
2024/03/08 02:41:13;;;;;;;20.50;8.30;;;;;;;-1.57;56.69;101261.30;105176;1261;68760;-60
2024/03/08 02:43:40;;;;;;;16.40;5.50;;;;;;;-1.47;56.73;101259.94;105228;1257;70784;-64
2024/03/08 02:46:08;;;;;;;25.00;9.00;;;;;;;-1.37;56.39;101259.09;105468;1260;60530;-60
2024/03/08 02:48:36;;;;;;;24.10;9.00;;;;;;;-1.32;56.18;101255.75;105082;1255;60546;-61
2024/03/08 02:51:05;;;;;;;20.30;9.70;;;;;;;-1.26;56.14;101252.02;105525;1260;72638;-59
2024/03/08 02:53:33;;;;;;;22.50;10.00;;;;;;;-1.27;55.85;101250.83;105565;1258;70579;-63
2024/03/08 02:56:00;;;;;;;17.30;7.60;;;;;;;-1.32;55.63;101252.64;105109;1254;73121;-62
2024/03/08 02:58:28;;;;;;;24.40;8.40;;;;;;;-1.36;55.41;101252.18;105192;1260;60518;-66
2024/03/08 03:00:57;;;;;;;23.90;11.00;;;;;;;-1.40;55.34;101248.99;105710;1260;60418;-60
2024/03/08 03:03:26;;;;;;;27.50;9.00;;;;;;;-1.46;55.26;101248.04;105683;1254;72652;-60
2024/03/08 03:05:56;;;;;;;23.60;10.60;;;;;;;-1.50;55.26;101244.14;105173;1254;68847;-61
2024/03/08 03:08:24;;;;;;;26.70;10.30;;;;;;;-1.53;55.30;101243.69;105182;1254;72610;-59
2024/03/08 03:10:52;;;;;;;19.80;8.10;;;;;;;-1.57;55.45;101240.83;105781;1257;60565;-59
2024/03/08 03:13:20;;;;;;;13.40;7.10;;;;;;;-1.64;55.71;101238.02;105220;1254;60424;-60
2024/03/08 03:15:47;;;;;;;19.90;9.10;;;;;;;-1.73;55.95;101237.46;105185;1257;72568;-60
2024/03/08 03:18:15;;;;;;;19.10;8.30;;;;;;;-1.77;56.16;101238.55;105276;1260;68859;-60
2024/03/08 03:20:44;;;;;;;21.40;8.20;;;;;;;-1.81;56.27;101240.34;105215;1254;71418;-60
2024/03/08 03:23:14;;;;;;;17.40;7.70;;;;;;;-1.85;56.46;101237.80;105327;1260;60661;-60
2024/03/08 03:25:43;;;;;;;17.50;8.00;;;;;;;-1.91;56.67;101234.96;105443;1254;60551;-60
2024/03/08 03:28:14;;;;;;;17.60;6.80;;;;;;;-1.96;56.75;101237.96;105319;1254;72658;-60
2024/03/08 03:30:43;;;;;;;15.70;6.90;;;;;;;-2.00;56.86;101231.84;105121;1261;69490;-58
2024/03/08 03:33:12;;;;;;;14.70;7.30;;;;;;;-2.03;57.05;101232.75;105274;1260;72635;-58
2024/03/08 03:35:41;;;;;;;19.20;7.40;;;;;;;-2.07;57.30;101232.62;105209;1258;60412;-60
2024/03/08 03:38:09;;;;;;;15.90;6.80;;;;;;;-2.05;57.27;101224.88;105410;1255;60646;-60
2024/03/08 03:40:39;;;;;;;19.00;7.70;;;;;;;-1.99;57.31;101225.27;105404;1254;73758;-59
2024/03/08 03:43:07;;;;;;;15.30;4.20;;;;;;;-1.91;57.40;101230.33;105389;1260;68134;-59
2024/03/08 03:45:35;;;;;;;18.20;7.90;;;;;;;-1.85;57.41;101227.33;105445;1260;71377;-59
2024/03/08 03:48:12;;;;;;;14.70;5.70;;;;;;;-1.79;57.39;101229.82;105409;1260;60444;-59
2024/03/08 03:50:44;;;;;;;16.50;5.80;;;;;;;-1.76;57.32;101230.45;105238;1254;60508;-59
2024/03/08 03:53:13;;;;;;;18.00;7.00;;;;;;;-1.76;57.26;101226.48;105334;1255;74254;-59
2024/03/08 03:55:40;;;;;;;18.00;7.20;;;;;;;-1.76;57.47;101224.61;105293;1254;68980;-60
2024/03/08 03:58:09;;;;;;;19.20;7.50;;;;;;;-1.77;57.58;101222.56;105252;1257;72695;-60
2024/03/08 04:00:38;;;;;;;13.00;6.40;;;;;;;-1.79;57.62;101224.83;105307;1257;60716;-60
2024/03/08 04:03:08;;;;;;;13.40;5.00;;;;;;;-1.82;57.70;101217.83;105479;1256;60387;-61
2024/03/08 04:05:36;;;;;;;13.00;6.50;;;;;;;-1.83;57.68;101225.23;105469;1254;71774;-60
2024/03/08 04:08:04;;;;;;;17.10;7.50;;;;;;;-1.86;57.68;101222.70;105459;1254;69214;-61
2024/03/08 04:10:32;;;;;;;20.40;7.40;;;;;;;-1.89;57.70;101224.11;105507;1260;72449;-60
2024/03/08 04:13:00;;;;;;;19.30;6.90;;;;;;;-1.91;57.72;101222.09;105565;1257;60539;-60
2024/03/08 04:15:27;;;;;;;18.50;6.80;;;;;;;-1.95;57.67;101225.40;105229;1255;60490;-61
2024/03/08 04:17:57;;;;;;;19.70;7.40;;;;;;;-2.01;57.68;101220.67;105307;1260;72135;-60
2024/03/08 04:20:25;;;;;;;16.00;7.00;;;;;;;-2.06;57.62;101216.96;105849;1259;68766;-60
2024/03/08 04:22:52;;;;;;;17.00;7.20;;;;;;;-2.09;57.78;101217.00;105150;1260;72990;-60
2024/03/08 04:25:21;;;;;;;18.70;9.50;;;;;;;-2.14;57.88;101217.93;105241;1258;64794;-60
2024/03/08 04:27:49;;;;;;;23.20;9.30;;;;;;;-2.20;58.03;101215.45;105219;1255;61145;-61
2024/03/08 04:30:17;;;;;;;15.10;7.20;;;;;;;-2.24;58.19;101219.29;105289;1260;72722;-60
2024/03/08 04:32:47;;;;;;;15.60;6.60;;;;;;;-2.25;58.32;101217.40;105247;1254;72721;-59
2024/03/08 04:35:15;;;;;;;12.90;5.30;;;;;;;-2.17;58.09;101212.47;105319;1261;72607;-58
2024/03/08 04:37:43;;;;;;;15.10;5.70;;;;;;;-2.07;58.03;101212.84;105208;1256;60478;-60
2024/03/08 04:40:11;;;;;;;19.90;6.10;;;;;;;-1.98;57.89;101210.33;105182;1260;60459;-58
2024/03/08 04:42:39;;;;;;;25.30;6.10;;;;;;;-1.89;58.00;101209.66;105396;1254;73793;-59
2024/03/08 04:45:10;;;;;;;15.50;5.80;;;;;;;-1.80;57.86;101205.58;105213;1254;70780;-57
2024/03/08 04:47:39;;;;;;;17.10;6.40;;;;;;;-1.70;57.74;101202.66;105309;1260;71641;-58
2024/03/08 04:50:08;;;;;;;19.90;7.10;;;;;;;-1.62;57.71;101198.73;105092;1261;60581;-58
2024/03/08 04:52:36;;;;;;;20.60;8.90;;;;;;;-1.55;57.75;101200.20;105418;1254;60722;-58
2024/03/08 04:55:05;;;;;;;19.00;8.40;;;;;;;-1.55;57.73;101199.65;105226;1255;72001;-58
2024/03/08 04:57:33;;;;;;;19.60;7.30;;;;;;;-1.55;57.68;101198.79;105133;1258;70502;-64
2024/03/08 05:00:02;;;;;;;13.20;6.50;;;;;;;-1.58;57.51;101201.77;105251;1259;71370;-62
2024/03/08 05:02:29;;;;;;;16.90;7.40;;;;;;;-1.65;57.37;101200.35;105604;1258;61122;-63
2024/03/08 05:04:57;;;;;;;18.80;6.90;;;;;;;-1.72;57.30;101206.98;105214;1260;61992;-63
2024/03/08 05:07:25;;;;;;;17.60;6.80;;;;;;;-1.77;57.36;101204.15;105140;1260;72860;-67
2024/03/08 05:09:53;;;;;;;26.30;8.30;;;;;;;-1.81;57.25;101213.15;105387;1260;68325;-69
2024/03/08 05:12:22;;;;;;;25.00;8.90;;;;;;;-1.85;57.28;101208.58;105813;1257;72662;-64
2024/03/08 05:14:50;;;;;;;21.10;8.40;;;;;;;-1.89;57.43;101208.12;105783;1260;183034;-67
2024/03/08 05:19:38;;;;;;;26.60;11.40;;;;;;;-2.26;58.57;101210.02;102061;1295;603512;-67
2024/03/08 05:22:05;;;;;;;26.90;11.00;;;;;;;-1.97;57.98;101211.84;104537;1268;59372;-63
2024/03/08 05:24:33;;;;;;;24.90;8.90;;;;;;;-1.93;58.05;101214.20;104828;1266;60002;-67
2024/03/08 05:27:00;;;;;;;22.00;8.10;;;;;;;-1.88;58.14;101210.69;104644;1268;72687;-66
2024/03/08 05:29:27;;;;;;;20.40;10.10;;;;;;;-1.82;58.23;101214.20;104501;1266;70553;-67
2024/03/08 05:31:54;;;;;;;20.40;9.10;;;;;;;-1.76;58.39;101209.81;105061;1268;176060;-68
2024/03/08 05:34:21;;;;;;;22.50;8.90;;;;;;;-1.70;58.44;101214.54;105335;1263;60365;-66
2024/03/08 05:36:50;;;;;;;25.10;10.90;;;;;;;-1.62;58.50;101214.59;105399;1263;60232;-67
2024/03/08 05:39:17;;;;;;;22.80;9.90;;;;;;;-1.55;58.54;101214.29;104632;1267;71961;-63
2024/03/08 05:41:45;;;;;;;28.10;10.00;;;;;;;-1.49;58.55;101213.67;105560;1263;70924;-63
2024/03/08 05:44:12;;;;;;;18.90;7.30;;;;;;;-1.43;58.68;101210.82;104484;1263;73236;-63
2024/03/08 05:46:39;;;;;;;17.20;7.20;;;;;;;-1.29;58.59;101204.90;104669;1263;62242;-63
2024/03/08 05:49:06;;;;;;;22.10;7.60;;;;;;;-1.11;58.37;101202.16;104973;1264;60279;-63
2024/03/08 05:51:34;;;;;;;23.40;8.30;;;;;;;-0.94;58.32;101199.27;105009;1263;73633;-61
2024/03/08 05:54:09;;;;;;;24.70;8.20;;;;;;;-0.78;58.35;101199.13;105176;1262;70499;-62
2024/03/08 05:56:37;;;;;;;26.30;11.60;;;;;;;-0.59;58.24;101195.13;105130;1262;73121;-62
2024/03/08 05:59:04;;;;;;;39.40;10.90;;;;;;;-0.43;58.15;101194.42;105118;1264;61762;-61
2024/03/08 06:01:31;;;;;;;25.30;9.40;;;;;;;-0.28;58.07;101191.01;104964;1263;60071;-62
2024/03/08 06:03:58;;;;;;;23.20;10.30;;;;;;;-0.13;57.89;101191.03;105108;1267;73631;-60
2024/03/08 06:06:25;;;;;;;19.50;8.80;;;;;;;0.00;57.94;101193.31;104695;1263;70582;-63
2024/03/08 06:08:52;;;;;;;21.20;11.10;;;;;;;0.07;57.75;101196.42;105356;1263;73063;-60
2024/03/08 06:11:20;;;;;;;19.50;7.80;;;;;;;0.11;57.56;101193.75;104609;1266;60435;-60
2024/03/08 06:13:48;;;;;;;19.40;9.40;;;;;;;0.17;57.34;101192.41;104887;1263;60182;-58
2024/03/08 06:16:15;;;;;;;15.70;10.20;;;;;;;0.22;57.21;101195.74;106306;1262;73946;-61
2024/03/08 06:18:42;;;;;;;19.50;9.70;;;;;;;0.23;56.94;101192.27;104780;1263;70698;-61
2024/03/08 06:21:11;;;;;;;20.20;8.60;;;;;;;0.27;56.88;101193.37;104667;1269;72780;-60
2024/03/08 06:23:39;;;;;;;19.00;10.50;;;;;;;0.30;56.63;101198.14;105009;1263;59957;-60
2024/03/08 06:26:06;;;;;;;22.30;9.90;;;;;;;0.31;56.63;101193.10;105943;1263;60202;-62
2024/03/08 06:28:34;;;;;;;24.20;8.90;;;;;;;0.34;56.57;101188.89;105072;1266;75220;-60
2024/03/08 06:31:01;;;;;;;25.80;10.70;;;;;;;0.38;56.59;101187.94;105041;1263;70779;-60
2024/03/08 06:33:28;;;;;;;23.80;10.10;;;;;;;0.39;56.51;101184.10;105205;1263;73133;-62
2024/03/08 06:35:57;;;;;;;27.30;12.10;;;;;;;0.44;56.50;101185.71;105274;1263;59657;-62
2024/03/08 06:38:24;;;;;;;23.40;9.80;;;;;;;0.50;56.55;101188.85;105373;1263;60330;-61
2024/03/08 06:40:52;;;;;;;22.20;11.20;;;;;;;0.55;56.61;101185.59;105216;1269;72981;-60
2024/03/08 06:43:19;;;;;;;26.30;11.20;;;;;;;0.61;56.68;101184.59;105486;1263;70101;-60
2024/03/08 06:45:48;;;;;;;17.90;8.70;;;;;;;0.68;56.57;101183.72;104458;1263;71471;-61
2024/03/08 06:48:18;;;;;;;21.30;10.20;;;;;;;0.74;56.55;101178.02;104647;1263;60245;-63
2024/03/08 06:50:46;;;;;;;19.50;10.20;;;;;;;0.80;56.52;101179.09;104741;1264;60250;-63
2024/03/08 06:53:13;;;;;;;25.90;11.80;;;;;;;0.85;56.50;101177.73;104741;1267;73497;-63
2024/03/08 06:55:40;;;;;;;28.10;12.80;;;;;;;0.93;56.53;101177.88;104954;1265;70896;-63
2024/03/08 06:58:10;;;;;;;18.70;9.10;;;;;;;1.01;56.28;101180.42;105045;1264;73000;-62
2024/03/08 07:00:37;;;;;;;21.20;8.90;;;;;;;1.11;56.14;101173.92;105198;1260;61081;-62
2024/03/08 07:03:07;;;;;;;17.40;7.90;;;;;;;1.26;56.07;101170.20;105223;1260;60829;-62
2024/03/08 07:05:35;;;;;;;16.80;7.20;;;;;;;1.43;56.00;101176.46;105116;1265;73021;-62
2024/03/08 07:08:02;;;;;;;18.30;7.20;;;;;;;1.61;56.00;101173.84;105367;1263;70370;-56
2024/03/08 07:10:29;;;;;;;15.90;8.00;;;;;;;1.78;55.60;101170.42;105252;1264;73409;-61
2024/03/08 07:12:56;;;;;;;18.30;7.70;;;;;;;1.94;55.42;101172.36;105207;1260;62305;-62
2024/03/08 07:15:23;;;;;;;18.80;7.70;;;;;;;2.06;55.09;101169.52;104617;1260;59757;-62
2024/03/08 07:17:52;;;;;;;19.40;10.10;;;;;;;2.17;55.02;101168.66;105451;1263;73080;-61
2024/03/08 07:20:19;;;;;;;17.20;9.40;;;;;;;2.29;54.95;101170.85;107290;1263;70759;-61
2024/03/08 07:22:56;;;;;;;22.10;11.80;;;;;;;2.43;54.84;101169.73;104926;1264;72596;-61
2024/03/08 07:25:29;;;;;;;19.90;10.00;;;;;;;2.56;54.59;101168.40;105328;1260;59320;-59
2024/03/08 07:27:56;;;;;;;18.00;8.60;;;;;;;2.65;54.28;101166.02;104840;1260;59736;-60
2024/03/08 07:33:14;;;;;;;24.80;10.70;;;;;;;2.80;53.79;101158.23;104963;1260;61742;-60
2024/03/08 07:35:45;;;;;;;21.80;10.60;;;;;;;2.86;53.76;101154.36;104951;1260;71470;-59
2024/03/08 07:38:12;;;;;;;19.90;9.10;;;;;;;2.93;53.74;101153.09;104976;1260;59747;-57
2024/03/08 07:40:49;;;;;;;20.20;9.20;;;;;;;3.00;53.51;101156.84;104962;1260;59666;-56
2024/03/08 07:43:16;;;;;;;21.70;8.50;;;;;;;3.05;53.22;101157.52;104929;1260;63446;-55
2024/03/08 07:45:43;;;;;;;13.40;6.20;;;;;;;3.11;53.00;101153.83;104861;1265;70237;-56
2024/03/08 07:48:10;;;;;;;20.20;10.00;;;;;;;3.17;52.91;101152.23;104867;1262;64660;-56
2024/03/08 07:50:41;;;;;;;18.00;7.50;;;;;;;3.24;52.82;101153.02;104899;1264;59640;-56
2024/03/08 07:53:08;;;;;;;19.80;8.30;;;;;;;3.32;52.64;101150.29;104945;1260;59655;-56
2024/03/08 07:55:35;;;;;;;17.90;9.20;;;;;;;3.39;52.19;101144.66;104806;1261;71753;-57
2024/03/08 07:58:03;;;;;;;25.00;10.60;;;;;;;3.43;51.97;101137.36;106085;1265;70840;-56
2024/03/08 08:00:31;;;;;;;19.30;9.90;;;;;;;3.49;51.50;101136.46;105186;1264;71174;-55
2024/03/08 08:02:58;;;;;;;20.30;8.20;;;;;;;3.56;51.37;101136.89;105396;1260;60565;-55
2024/03/08 08:05:26;;;;;;;19.30;9.40;;;;;;;3.63;51.26;101139.73;105443;1265;60177;-55
2024/03/08 08:07:53;;;;;;;18.30;8.90;;;;;;;3.70;51.26;101138.74;105429;1263;73067;-55
2024/03/08 08:10:24;;;;;;;20.90;10.20;;;;;;;3.79;51.19;101137.89;108048;1263;69167;-56
2024/03/08 08:12:51;;;;;;;16.30;8.10;;;;;;;3.90;50.82;101133.84;105427;1265;64290;-55
2024/03/08 08:15:18;;;;;;;14.40;8.20;;;;;;;3.99;50.27;101127.21;104959;1260;59761;-53
2024/03/08 08:17:47;;;;;;;16.20;7.30;;;;;;;4.07;49.79;101124.61;108768;1260;57792;-54
2024/03/08 08:20:15;;;;;;;14.80;6.60;;;;;;;4.17;49.17;101127.17;108813;1259;71885;-59
2024/03/08 08:22:43;;;;;;;13.40;6.20;;;;;;;4.23;48.49;101125.34;108777;1260;71206;-57
2024/03/08 08:25:12;;;;;;;13.60;5.90;;;;;;;4.31;48.10;101125.00;108758;1260;62611;-57
2024/03/08 08:27:39;;;;;;;11.10;4.60;;;;;;;4.41;47.12;101123.38;105017;1260;59884;-57
2024/03/08 08:30:07;;;;;;;12.40;4.50;;;;;;;4.51;46.41;101123.33;105131;1260;59704;-54
2024/03/08 08:32:46;;;;;;;15.00;6.60;;;;;;;4.59;45.96;101122.10;105139;1263;63055;-55
2024/03/08 08:35:14;;;;;;;11.10;5.30;;;;;;;4.67;45.82;101119.83;104786;1260;62017;-55
2024/03/08 08:37:41;;;;;;;11.40;5.50;;;;;;;4.75;45.48;101119.84;104966;1260;64661;-54
2024/03/08 08:40:14;;;;;;;9.50;4.10;;;;;;;4.81;44.91;101115.91;105037;1260;59833;-55
2024/03/08 08:42:41;;;;;;;9.60;4.50;;;;;;;4.86;44.25;101112.21;104938;1261;59772;-52
2024/03/08 08:45:09;;;;;;;12.40;4.10;;;;;;;4.92;43.94;101109.70;105184;1263;73167;-54
2024/03/08 08:47:46;;;;;;;18.30;12.80;;;;;;;4.99;43.64;101108.85;104992;1260;63593;-56
2024/03/08 08:50:13;;;;;;;11.60;4.50;;;;;;;5.09;43.44;101104.95;104930;1260;72218;-55
2024/03/08 08:52:43;;;;;;;11.60;4.50;;;;;;;5.15;43.32;101106.23;104942;1260;60472;-56
2024/03/08 08:55:14;;;;;;;13.90;4.80;;;;;;;5.17;42.60;101105.59;104817;1260;59753;-55
2024/03/08 08:57:41;;;;;;;11.30;5.00;;;;;;;5.22;41.89;101100.86;104834;1263;66890;-56
2024/03/08 09:00:09;;;;;;;11.30;5.10;;;;;;;5.28;42.36;101097.11;108792;1260;60535;-56
2024/03/08 09:02:37;;;;;;;11.10;4.60;;;;;;;5.37;42.69;101094.92;108749;1260;64040;-54
2024/03/08 09:05:04;;;;;;;13.80;5.50;;;;;;;5.51;42.13;101094.27;106044;1261;59663;-54
2024/03/08 09:07:32;;;;;;;11.70;4.80;;;;;;;5.61;41.74;101088.79;104797;1265;59599;-54
2024/03/08 09:10:00;;;;;;;10.20;4.50;;;;;;;5.65;41.68;101089.80;106106;1263;64536;-55
2024/03/08 09:12:42;;;;;;;14.70;5.70;;;;;;;5.69;41.24;101088.57;104843;1264;61578;-55
2024/03/08 09:15:11;;;;;;;12.70;5.60;;;;;;;5.72;40.93;101081.48;105101;1260;73845;-55
2024/03/08 09:17:40;;;;;;;13.30;6.20;;;;;;;5.78;40.97;101078.41;104967;1264;59635;-54
2024/03/08 09:20:08;;;;;;;14.80;5.20;;;;;;;5.88;40.99;101076.36;105175;1263;59805;-54
2024/03/08 09:22:36;;;;;;;8.70;3.80;;;;;;;5.97;39.57;101075.41;105167;1261;65239;-54
2024/03/08 09:25:05;;;;;;;14.10;5.70;;;;;;;6.00;39.08;101070.92;105162;1263;61473;-54
2024/03/08 09:27:32;;;;;;;13.50;6.30;;;;;;;6.01;38.90;101064.23;105193;1263;64175;-54
2024/03/08 09:29:59;;;;;;;12.20;5.00;;;;;;;6.01;39.18;101061.30;104711;1260;60449;-55
2024/03/08 09:32:26;;;;;;;10.60;4.20;;;;;;;6.03;39.08;101059.61;104616;1265;60507;-56
2024/03/08 09:34:53;;;;;;;10.80;4.70;;;;;;;6.06;38.76;101059.09;104738;1260;75053;-53
2024/03/08 09:37:20;;;;;;;10.70;4.10;;;;;;;6.07;38.52;101056.63;104647;1265;60516;-54
2024/03/08 09:39:48;;;;;;;12.10;4.90;;;;;;;6.09;38.41;101058.09;105644;1260;64332;-54
2024/03/08 09:42:16;;;;;;;12.40;3.90;;;;;;;6.16;38.71;101058.42;104971;1263;60542;-54
2024/03/08 09:44:46;;;;;;;10.40;5.30;;;;;;;6.26;38.68;101056.17;105013;1263;60305;-54
2024/03/08 09:47:14;;;;;;;12.60;4.60;;;;;;;6.34;38.07;101053.51;104872;1263;65263;-50
2024/03/08 09:49:41;;;;;;;13.40;5.30;;;;;;;6.37;37.93;101052.80;105899;1260;61538;-55
2024/03/08 09:52:08;;;;;;;14.30;6.50;;;;;;;6.39;37.92;101050.77;104999;1264;63918;-55
2024/03/08 09:54:35;;;;;;;18.70;5.80;;;;;;;6.40;37.88;101051.07;105075;1263;60570;-55
2024/03/08 09:57:04;;;;;;;12.90;4.80;;;;;;;6.42;38.18;101050.14;108790;1260;58439;-56
2024/03/08 10:02:04;;;;;;;13.00;5.10;;;;;;;6.58;38.31;101048.75;105941;1262;61582;-55
2024/03/08 10:04:32;;;;;;;13.90;6.00;;;;;;;6.66;38.03;101048.55;104763;1265;62832;-55
2024/03/08 10:07:00;;;;;;;13.40;6.20;;;;;;;6.72;37.86;101045.40;105165;1262;60347;-56
2024/03/08 10:09:27;;;;;;;13.50;6.00;;;;;;;6.76;37.72;101039.27;105391;1266;60915;-56
2024/03/08 10:11:57;;;;;;;16.80;6.60;;;;;;;6.78;37.49;101037.08;105350;1260;64079;-57
2024/03/08 10:14:26;;;;;;;14.90;5.30;;;;;;;6.78;37.52;101035.66;105418;1263;61826;-56
2024/03/08 10:16:53;;;;;;;14.90;6.20;;;;;;;6.80;37.50;101032.29;105435;1263;63855;-56
2024/03/08 10:19:20;;;;;;;23.50;15.20;;;;;;;6.82;37.45;101033.20;105562;1260;60565;-58
2024/03/08 10:21:52;;;;;;;16.10;7.40;;;;;;;6.86;37.46;101031.41;105518;1271;61585;-61
2024/03/08 10:24:20;;;;;;;16.90;7.00;;;;;;;6.91;37.54;101028.91;107981;1259;65016;-56
2024/03/08 10:26:47;;;;;;;23.60;14.40;;;;;;;6.97;37.50;101025.45;105500;1266;61662;-57
2024/03/08 10:29:17;;;;;;;12.60;5.50;;;;;;;7.00;37.43;101025.23;104849;1264;64333;-57
2024/03/08 10:31:44;;;;;;;12.70;5.30;;;;;;;7.06;37.21;101024.60;104976;1260;60328;-57
2024/03/08 10:34:12;;;;;;;14.50;6.00;;;;;;;7.11;37.29;101021.16;105562;1260;60480;-57
2024/03/08 10:36:41;;;;;;;14.50;6.50;;;;;;;7.18;37.25;101012.55;108717;1260;65412;-59
2024/03/08 10:39:31;;;;;;;34.40;8.00;;;;;;;7.25;37.10;101007.98;108741;1260;60472;-57
2024/03/08 10:42:01;;;;;;;14.90;6.50;;;;;;;7.30;36.50;101006.48;108735;1260;64371;-58
2024/03/08 10:44:34;;;;;;;14.10;5.30;;;;;;;7.36;36.43;101003.17;108747;1260;58563;-57
2024/03/08 10:47:10;;;;;;;20.60;12.90;;;;;;;7.44;36.26;100998.88;108748;1263;63598;-57
2024/03/08 10:49:38;;;;;;;13.60;5.80;;;;;;;7.56;35.80;100996.61;108064;1256;64989;-56
2024/03/08 10:52:08;;;;;;;20.00;12.70;;;;;;;7.66;35.40;100991.38;105698;1254;62673;-57
2024/03/08 10:54:39;;;;;;;17.30;6.30;;;;;;;7.71;35.09;100990.69;105676;1256;65185;-56
2024/03/08 10:57:12;;;;;;;12.80;5.50;;;;;;;7.80;34.25;100989.48;105463;1255;60555;-56
2024/03/08 10:59:39;;;;;;;10.60;5.30;;;;;;;7.84;34.17;100987.70;105629;1255;60437;-56
2024/03/08 11:02:06;;;;;;;13.70;6.20;;;;;;;7.84;34.29;100985.23;106348;1256;65096;-56
2024/03/08 11:04:33;;;;;;;18.40;12.40;;;;;;;7.86;34.66;100980.07;105463;1256;61965;-55
2024/03/08 11:07:06;;;;;;;13.80;6.80;;;;;;;7.92;34.40;100976.55;105421;1256;62858;-56
2024/03/08 11:09:36;;;;;;;12.60;5.10;;;;;;;7.96;33.98;100977.52;105742;1259;60448;-56
2024/03/08 11:12:32;;;;;;;14.10;5.40;;;;;;;7.98;33.93;100974.97;107002;1256;60442;-56
2024/03/08 11:15:00;;;;;;;11.50;5.30;;;;;;;8.02;33.67;100968.77;105459;1257;65238;-53
2024/03/08 11:17:30;;;;;;;18.40;12.30;;;;;;;8.07;33.78;100963.12;106315;1256;61928;-53
2024/03/08 11:20:01;;;;;;;12.10;5.60;;;;;;;8.13;33.87;100962.05;105910;1256;65485;-57
2024/03/08 11:22:31;;;;;;;20.20;13.50;;;;;;;8.20;33.68;100957.42;105852;1254;60451;-57
2024/03/08 11:25:09;;;;;;;12.40;5.90;;;;;;;8.27;33.72;100955.94;106721;1252;60416;-56